Time;durP1;ratioP1;P1;durP2;ratioP2;P2;SDS_P1;SDS_P2;PMS_P1;PMS_P2;Temp;Humidity;BMP_temperature;BMP_pressure;BME280_temperature;BME280_humidity;BME280_pressure;Samples;Min_cycle;Max_cycle;Signal;HPM_P1;HPM_P2
2022/04/14 00:00:38;;;;;;;6.47;3.88;;;;;;;9.05;79.26;97367.69;5064642;28;20054;-60
2022/04/14 00:03:05;;;;;;;9.65;4.13;;;;;;;9.01;79.31;97363.00;5062953;28;20527;-61
2022/04/14 00:05:32;;;;;;;7.28;3.75;;;;;;;8.94;79.57;97366.66;5061705;28;20127;-61
2022/04/14 00:07:59;;;;;;;9.82;3.60;;;;;;;9.02;79.32;97362.75;5063983;28;20028;-62
2022/04/14 00:10:26;;;;;;;8.48;3.53;;;;;;;9.04;78.93;97363.34;5064757;28;20048;-61
2022/04/14 00:12:52;;;;;;;7.95;3.42;;;;;;;9.03;78.99;97371.69;5062850;28;20047;-60
2022/04/14 00:15:19;;;;;;;8.15;3.70;;;;;;;8.98;79.49;97367.00;5069199;28;20112;-61
2022/04/14 00:17:45;;;;;;;9.65;3.85;;;;;;;8.96;79.59;97361.84;5061177;28;20033;-62
2022/04/14 00:20:12;;;;;;;7.60;3.58;;;;;;;8.90;79.60;97368.22;5065042;28;20063;-61
2022/04/14 00:22:39;;;;;;;7.50;3.78;;;;;;;8.79;79.70;97363.66;5057138;28;20044;-61
2022/04/14 00:25:06;;;;;;;6.82;3.20;;;;;;;8.82;79.56;97361.28;5060602;28;20109;-62
2022/04/14 00:27:32;;;;;;;7.75;3.35;;;;;;;8.91;79.44;97360.91;5061399;28;20037;-61
2022/04/14 00:29:59;;;;;;;7.63;3.10;;;;;;;8.99;79.48;97352.41;5057205;28;20048;-60
2022/04/14 00:32:25;;;;;;;7.45;3.10;;;;;;;9.03;79.18;97352.78;5058426;28;20046;-62
2022/04/14 00:34:52;;;;;;;8.60;3.55;;;;;;;9.08;79.01;97359.09;5065557;28;20042;-60
2022/04/14 00:37:19;;;;;;;8.30;3.28;;;;;;;9.13;78.43;97360.25;5053839;28;20037;-60
2022/04/14 00:39:45;;;;;;;8.55;3.72;;;;;;;9.14;78.52;97356.47;5047333;28;20045;-61
2022/04/14 00:42:13;;;;;;;6.72;3.20;;;;;;;9.21;78.36;97360.66;5046539;28;20128;-61
2022/04/14 00:44:40;;;;;;;6.70;2.90;;;;;;;9.27;78.67;97355.34;5045523;28;20045;-61
2022/04/14 00:47:07;;;;;;;8.38;3.17;;;;;;;9.41;77.76;97359.38;5051474;28;20037;-61
2022/04/14 00:49:35;;;;;;;9.38;3.53;;;;;;;9.72;75.70;97359.03;5058692;28;20107;-60
2022/04/14 00:52:03;;;;;;;5.68;2.92;;;;;;;9.75;75.50;97355.84;5046463;28;20262;-60
2022/04/14 00:54:30;;;;;;;11.48;3.42;;;;;;;9.74;76.16;97362.31;5046459;28;20059;-61
2022/04/14 00:56:58;;;;;;;12.15;3.90;;;;;;;9.76;75.95;97365.59;5046248;28;20044;-60
2022/04/14 00:59:26;;;;;;;7.97;3.53;;;;;;;9.81;75.46;97381.09;5053948;28;20529;-62
2022/04/14 01:01:56;;;;;;;9.18;4.18;;;;;;;10.01;74.25;97373.28;5059252;28;20040;-61
2022/04/14 01:04:25;;;;;;;5.05;3.25;;;;;;;10.06;74.27;97369.00;5059551;28;20052;-61
2022/04/14 01:06:51;;;;;;;6.57;2.97;;;;;;;10.16;74.12;97374.56;5052066;28;20044;-60
2022/04/14 01:09:19;;;;;;;11.00;4.13;;;;;;;10.13;73.97;97375.06;5066893;28;20032;-62
2022/04/14 01:11:48;;;;;;;9.18;3.40;;;;;;;10.15;73.64;97378.34;5062533;28;20060;-61
2022/04/14 01:14:29;;;;;;;5.47;3.00;;;;;;;10.09;73.36;97379.31;5067502;28;20040;-61
2022/04/14 01:17:00;;;;;;;9.90;3.38;;;;;;;10.06;74.04;97382.53;5045296;28;20044;-62
2022/04/14 01:19:27;;;;;;;9.27;3.10;;;;;;;9.96;74.57;97381.34;5058895;28;20055;-62
2022/04/14 01:22:20;;;;;;;8.75;3.60;;;;;;;10.00;74.36;97384.34;5052431;28;20048;-60
2022/04/14 01:24:47;;;;;;;6.63;3.20;;;;;;;9.67;75.86;97392.25;5059411;28;20464;-60
2022/04/14 01:27:13;;;;;;;9.32;3.47;;;;;;;9.57;76.16;97382.06;5058633;28;21924;-61
2022/04/14 01:29:40;;;;;;;11.32;3.95;;;;;;;9.67;76.15;97388.69;5064999;28;20047;-60
2022/04/14 01:32:07;;;;;;;7.43;3.55;;;;;;;9.65;76.52;97388.16;5059550;28;20389;-61
2022/04/14 01:34:34;;;;;;;9.98;3.90;;;;;;;9.86;76.20;97387.41;5061744;28;20407;-62
2022/04/14 01:37:01;;;;;;;12.23;4.22;;;;;;;9.69;76.58;97392.00;5057705;28;20055;-61
2022/04/14 01:39:28;;;;;;;8.23;3.72;;;;;;;9.67;76.74;97400.34;5056285;28;20044;-61
2022/04/14 01:41:55;;;;;;;9.50;3.97;;;;;;;9.72;77.11;97399.59;5056309;28;20053;-60
2022/04/14 01:44:21;;;;;;;15.90;5.07;;;;;;;9.55;77.67;97402.31;5061121;28;20044;-61
2022/04/14 01:46:48;;;;;;;7.88;3.97;;;;;;;9.53;77.92;97405.25;5061234;28;20044;-62
2022/04/14 01:49:15;;;;;;;6.68;3.97;;;;;;;9.47;77.53;97401.63;5061332;28;20048;-60
2022/04/14 01:51:41;;;;;;;12.40;5.13;;;;;;;9.48;78.34;97405.97;5058813;28;20539;-62
2022/04/14 01:54:08;;;;;;;12.43;5.15;;;;;;;9.50;78.59;97403.03;5063373;28;20500;-62
2022/04/14 01:56:34;;;;;;;8.55;4.65;;;;;;;9.55;79.31;97403.09;5063549;28;20425;-62
2022/04/14 01:59:01;;;;;;;10.48;4.85;;;;;;;9.63;78.76;97404.59;5050398;28;20036;-60
2022/04/14 02:01:28;;;;;;;15.52;5.60;;;;;;;9.68;79.05;97409.25;5049779;28;20048;-61
2022/04/14 02:03:57;;;;;;;10.98;5.28;;;;;;;9.75;79.03;97404.53;5064812;28;20312;-60
2022/04/14 02:06:23;;;;;;;15.10;6.25;;;;;;;10.01;80.28;97411.16;5063858;28;20048;-62
2022/04/14 02:08:50;;;;;;;9.98;5.45;;;;;;;10.05;79.06;97419.59;5056615;28;20044;-61
2022/04/14 02:11:17;;;;;;;10.25;4.78;;;;;;;9.99;78.78;97418.69;5045417;28;20051;-63
2022/04/14 02:13:43;;;;;;;13.55;6.80;;;;;;;10.00;79.64;97423.03;5060998;28;20032;-61
2022/04/14 02:16:10;;;;;;;9.07;6.00;;;;;;;10.09;79.95;97420.72;5064793;28;20063;-61
2022/04/14 02:18:37;;;;;;;10.07;5.75;;;;;;;10.11;80.09;97423.19;5069178;28;20127;-62
2022/04/14 02:21:03;;;;;;;11.05;5.95;;;;;;;10.13;80.05;97429.16;5058145;28;20051;-61
2022/04/14 02:23:30;;;;;;;11.50;6.10;;;;;;;10.16;79.92;97428.69;5065262;28;20052;-61
2022/04/14 02:25:57;;;;;;;10.55;6.60;;;;;;;10.32;80.20;97423.50;5063443;28;20041;-62
2022/04/14 02:28:23;;;;;;;13.80;7.10;;;;;;;10.36;79.89;97433.56;5059995;28;20870;-61
2022/04/14 02:30:50;;;;;;;14.15;7.50;;;;;;;10.35;81.03;97425.69;5053822;28;20052;-63
2022/04/14 02:33:16;;;;;;;11.88;8.20;;;;;;;10.30;81.28;97429.16;5062288;28;20036;-60
2022/04/14 02:35:43;;;;;;;12.65;7.43;;;;;;;10.23;81.20;97436.63;5067915;28;20554;-61
2022/04/14 02:38:10;;;;;;;15.93;7.85;;;;;;;10.21;81.34;97433.34;5056523;28;20033;-61
2022/04/14 02:40:36;;;;;;;11.00;6.70;;;;;;;10.17;81.50;97440.31;5056451;28;20348;-61
2022/04/14 02:43:03;;;;;;;16.50;7.28;;;;;;;10.10;81.99;97438.59;5058143;28;20575;-63
2022/04/14 02:45:31;;;;;;;14.98;8.35;;;;;;;10.11;82.23;97437.56;5049769;28;20037;-61
2022/04/14 02:47:57;;;;;;;15.57;9.55;;;;;;;10.21;83.54;97444.19;5049041;28;20090;-62
2022/04/14 02:50:24;;;;;;;14.75;9.82;;;;;;;10.21;83.28;97439.56;5047867;28;20047;-62
2022/04/14 02:52:51;;;;;;;21.08;11.23;;;;;;;10.33;83.96;97439.50;5052268;28;20569;-65
2022/04/14 02:55:19;;;;;;;20.67;11.38;;;;;;;10.46;84.27;97445.66;5064041;28;20059;-62
2022/04/14 02:57:46;;;;;;;16.77;10.35;;;;;;;10.47;84.01;97444.56;5066814;28;20255;-63
2022/04/14 03:00:14;;;;;;;18.48;11.45;;;;;;;10.49;83.73;97437.84;5054031;28;20084;-61
2022/04/14 03:02:41;;;;;;;18.92;10.30;;;;;;;10.55;83.84;97449.56;5065049;28;20044;-63
2022/04/14 03:05:09;;;;;;;16.98;11.63;;;;;;;10.73;83.50;97447.63;5060986;28;20074;-63
2022/04/14 03:07:36;;;;;;;21.90;11.68;;;;;;;10.89;82.89;97445.91;5063257;28;20043;-63
2022/04/14 03:10:05;;;;;;;20.55;11.45;;;;;;;10.96;82.39;97457.41;5051660;28;20175;-63
2022/04/14 03:12:46;;;;;;;22.77;12.60;;;;;;;11.01;82.70;97446.63;5063608;28;20408;-61
2022/04/14 03:15:14;;;;;;;18.15;11.15;;;;;;;11.12;82.47;97452.13;5048064;28;20118;-61
2022/04/14 03:17:42;;;;;;;18.67;12.68;;;;;;;11.14;82.08;97450.00;5048129;28;20043;-62
2022/04/14 03:20:09;;;;;;;26.60;14.18;;;;;;;11.16;82.46;97447.84;5050205;28;20045;-60
2022/04/14 03:22:36;;;;;;;19.88;13.27;;;;;;;11.15;82.18;97441.63;5067654;28;20032;-60
2022/04/14 03:25:05;;;;;;;21.90;15.65;;;;;;;11.14;82.68;97448.13;5067528;28;20073;-60
2022/04/14 03:27:32;;;;;;;26.17;17.77;;;;;;;11.08;83.07;97446.41;5047450;28;20076;-61
2022/04/14 03:29:59;;;;;;;27.33;17.23;;;;;;;11.08;83.31;97445.59;5048712;28;20044;-62
2022/04/14 03:32:26;;;;;;;24.38;16.08;;;;;;;10.98;83.46;97455.25;5056056;28;20365;-60
2022/04/14 03:34:53;;;;;;;28.90;17.98;;;;;;;10.86;84.47;97458.09;5047482;28;20045;-61
2022/04/14 03:37:20;;;;;;;30.63;19.65;;;;;;;10.80;85.10;97461.81;5047609;28;20037;-61
2022/04/14 03:39:46;;;;;;;29.77;20.80;;;;;;;10.85;85.18;97461.03;5048066;28;20041;-61
2022/04/14 03:42:13;;;;;;;35.65;21.52;;;;;;;10.91;85.23;97463.56;5061599;28;20049;-61
2022/04/14 03:44:39;;;;;;;28.90;20.20;;;;;;;10.94;84.62;97454.09;5047533;28;20090;-61
2022/04/14 03:47:06;;;;;;;30.58;20.98;;;;;;;10.89;84.86;97457.59;5047095;28;20048;-61
2022/04/14 03:49:33;;;;;;;36.13;23.42;;;;;;;10.86;85.49;97458.09;5049069;28;20041;-59
2022/04/14 03:51:59;;;;;;;29.00;19.05;;;;;;;10.85;84.52;97458.31;5053903;28;20103;-61
2022/04/14 03:54:26;;;;;;;36.08;20.08;;;;;;;10.74;84.68;97465.50;5048232;28;20419;-60
2022/04/14 03:56:53;;;;;;;32.85;21.40;;;;;;;10.79;85.06;97468.28;5046970;28;20041;-60
2022/04/14 03:59:20;;;;;;;30.33;19.10;;;;;;;10.80;84.59;97475.34;5046728;28;20041;-60
2022/04/14 04:01:47;;;;;;;33.65;22.83;;;;;;;10.79;85.41;97469.09;5054952;28;20037;-60
2022/04/14 04:04:14;;;;;;;37.72;23.83;;;;;;;10.78;85.85;97466.66;5054980;28;20041;-61
2022/04/14 04:06:41;;;;;;;31.63;20.42;;;;;;;10.64;85.59;97464.31;5041833;28;20181;-61
2022/04/14 04:09:07;;;;;;;36.20;23.30;;;;;;;10.75;85.97;97465.25;5058542;28;20048;-59
2022/04/14 04:11:34;;;;;;;35.20;23.52;;;;;;;10.88;85.47;97465.97;5056580;28;20522;-61
2022/04/14 04:14:01;;;;;;;34.25;23.65;;;;;;;10.90;85.24;97469.22;5063546;28;20458;-62
2022/04/14 04:16:27;;;;;;;33.25;22.63;;;;;;;10.80;85.61;97468.03;5060011;28;20040;-60
2022/04/14 04:18:54;;;;;;;39.03;22.45;;;;;;;10.83;85.83;97469.41;5059265;28;20091;-61
2022/04/14 04:21:20;;;;;;;33.60;22.27;;;;;;;10.77;85.86;97465.00;5061020;28;20495;-62
2022/04/14 04:23:47;;;;;;;37.50;23.90;;;;;;;10.69;85.99;97476.28;5051392;28;20037;-62
2022/04/14 04:26:14;;;;;;;34.30;21.65;;;;;;;10.75;85.71;97476.09;5054679;28;20101;-61
2022/04/14 04:28:40;;;;;;;39.50;24.40;;;;;;;10.71;86.38;97482.25;5053450;28;20077;-59
2022/04/14 04:31:10;;;;;;;42.70;28.02;;;;;;;10.61;86.89;97485.66;5061267;28;20049;-61
2022/04/14 04:33:38;;;;;;;39.63;25.58;;;;;;;10.58;87.77;97486.16;5044967;28;20040;-61
2022/04/14 04:36:04;;;;;;;39.55;27.17;;;;;;;10.58;87.59;97486.16;5051686;28;20064;-61
2022/04/14 04:38:31;;;;;;;43.30;26.27;;;;;;;10.57;87.60;97496.16;5046746;28;20351;-61
2022/04/14 04:40:58;;;;;;;43.40;28.95;;;;;;;10.61;87.50;97488.38;5054614;28;20056;-61
2022/04/14 04:43:26;;;;;;;43.15;26.10;;;;;;;10.61;87.31;97493.78;5059809;28;21094;-61
2022/04/14 04:45:52;;;;;;;40.63;27.05;;;;;;;10.61;87.67;97501.91;5047246;28;20041;-61
2022/04/14 04:48:19;;;;;;;43.33;28.10;;;;;;;10.57;87.52;97490.72;5054019;28;20044;-61
2022/04/14 04:50:46;;;;;;;41.75;27.55;;;;;;;10.54;87.88;97494.75;5057003;28;20370;-61
2022/04/14 04:53:12;;;;;;;42.38;27.98;;;;;;;10.47;87.94;97504.94;5051844;28;20056;-60
2022/04/14 04:55:39;;;;;;;38.60;25.75;;;;;;;10.44;88.42;97499.19;5047708;28;20565;-61
2022/04/14 04:58:05;;;;;;;42.97;27.48;;;;;;;10.41;88.69;97498.63;5051654;28;20540;-61
2022/04/14 05:00:33;;;;;;;38.50;25.35;;;;;;;10.45;88.75;97498.97;5046619;28;20459;-62
2022/04/14 05:02:59;;;;;;;41.53;26.77;;;;;;;10.50;88.67;97499.03;5056026;28;20045;-59
2022/04/14 05:05:27;;;;;;;39.40;26.55;;;;;;;10.49;88.55;97501.97;5057526;28;20048;-59
2022/04/14 05:07:54;;;;;;;42.50;26.60;;;;;;;10.53;88.58;97501.25;5062562;28;20040;-61
2022/04/14 05:10:20;;;;;;;42.20;25.83;;;;;;;10.60;88.32;97511.91;5057334;28;20056;-60
2022/04/14 05:12:47;;;;;;;43.80;26.42;;;;;;;10.66;88.02;97501.97;5047828;28;20053;-61
2022/04/14 05:15:13;;;;;;;42.13;26.48;;;;;;;10.66;88.04;97508.19;5060657;28;20311;-62
2022/04/14 05:17:40;;;;;;;41.60;27.08;;;;;;;10.70;87.82;97507.69;5060159;28;20044;-61
2022/04/14 05:20:07;;;;;;;39.47;25.25;;;;;;;10.72;87.98;97508.28;5062451;28;20037;-60
2022/04/14 05:22:34;;;;;;;37.92;25.48;;;;;;;10.74;87.78;97519.66;5059116;28;20293;-61
2022/04/14 05:25:02;;;;;;;38.42;24.98;;;;;;;10.79;87.54;97517.03;5061903;28;20090;-62
2022/04/14 05:27:28;;;;;;;34.63;25.35;;;;;;;10.85;87.39;97516.03;5063365;28;20430;-60
2022/04/14 05:29:55;;;;;;;35.97;24.55;;;;;;;10.87;87.27;97523.94;5046869;28;20423;-61
2022/04/14 05:32:22;;;;;;;38.20;24.67;;;;;;;10.91;87.35;97528.56;5060585;28;20462;-61
2022/04/14 05:34:54;;;;;;;35.05;23.90;;;;;;;10.96;86.94;97527.84;5044325;28;20111;-65
2022/04/14 05:37:21;;;;;;;36.03;22.95;;;;;;;11.04;86.62;97537.41;5045380;28;20059;-60
2022/04/14 05:39:47;;;;;;;33.50;21.83;;;;;;;11.08;86.50;97535.00;5056327;28;20036;-60
2022/04/14 05:42:14;;;;;;;31.80;21.85;;;;;;;11.09;86.41;97532.06;5054537;28;20052;-61
2022/04/14 05:44:40;;;;;;;35.65;21.73;;;;;;;11.15;86.08;97541.91;5056265;28;20040;-60
2022/04/14 05:47:07;;;;;;;33.35;21.88;;;;;;;11.16;86.15;97540.00;5064198;28;20428;-60
2022/04/14 05:49:34;;;;;;;36.22;22.98;;;;;;;11.19;86.13;97539.50;5045885;28;20052;-60
2022/04/14 05:52:00;;;;;;;32.47;22.50;;;;;;;11.25;85.71;97546.63;5052693;28;20049;-60
2022/04/14 05:54:27;;;;;;;37.60;22.42;;;;;;;11.30;85.31;97549.41;5057216;28;20059;-61
2022/04/14 05:56:53;;;;;;;37.03;21.77;;;;;;;11.37;85.11;97549.22;5059622;28;20549;-60
2022/04/14 05:59:20;;;;;;;34.65;22.52;;;;;;;11.42;85.24;97545.72;5045650;28;20048;-60
2022/04/14 06:01:47;;;;;;;31.65;21.55;;;;;;;11.48;84.71;97550.16;5051881;28;20052;-62
2022/04/14 06:04:14;;;;;;;34.03;23.58;;;;;;;11.52;84.37;97562.13;5048803;28;20533;-61
2022/04/14 06:06:41;;;;;;;30.10;21.42;;;;;;;11.57;84.51;97556.75;5070670;28;20051;-61
2022/04/14 06:09:07;;;;;;;30.90;21.10;;;;;;;11.63;84.36;97557.63;5068724;28;20428;-61
2022/04/14 06:11:34;;;;;;;35.85;23.13;;;;;;;11.69;84.15;97551.19;5056624;28;20051;-63
2022/04/14 06:14:01;;;;;;;33.92;22.02;;;;;;;11.76;83.71;97555.59;5061229;28;20044;-62
2022/04/14 06:16:27;;;;;;;31.27;20.70;;;;;;;11.81;83.73;97555.66;5052608;28;20531;-63
2022/04/14 06:18:54;;;;;;;36.38;22.83;;;;;;;11.82;84.04;97560.00;5049725;28;20489;-62
2022/04/14 06:21:20;;;;;;;29.13;20.55;;;;;;;11.91;83.38;97560.38;5044235;28;20103;-63
2022/04/14 06:23:47;;;;;;;32.08;20.92;;;;;;;11.98;82.78;97558.28;5050256;28;20059;-62
2022/04/14 06:26:13;;;;;;;30.90;20.92;;;;;;;12.02;83.11;97562.09;5063162;28;20048;-62
2022/04/14 06:28:42;;;;;;;29.40;20.05;;;;;;;12.13;82.44;97573.09;5054393;28;20045;-60
2022/04/14 06:31:08;;;;;;;33.03;21.98;;;;;;;12.14;82.24;97569.28;5042435;28;20455;-62
2022/04/14 06:33:35;;;;;;;31.52;21.35;;;;;;;12.20;82.13;97568.28;5052287;28;20549;-61
2022/04/14 06:36:01;;;;;;;31.83;19.95;;;;;;;12.22;81.60;97561.50;5047866;28;20045;-62
2022/04/14 06:38:28;;;;;;;30.55;18.83;;;;;;;12.23;81.76;97570.47;5049685;28;20125;-61
2022/04/14 06:40:54;;;;;;;32.60;20.05;;;;;;;12.30;81.00;97571.06;5048710;28;20057;-63
2022/04/14 06:43:21;;;;;;;30.02;19.48;;;;;;;12.29;81.51;97572.16;5061172;28;20522;-62
2022/04/14 06:45:47;;;;;;;26.65;19.45;;;;;;;12.43;81.34;97569.00;5063199;28;20553;-59
2022/04/14 06:48:14;;;;;;;29.00;20.17;;;;;;;12.44;80.89;97571.47;5082690;28;20052;-59
2022/04/14 06:50:41;;;;;;;26.80;19.65;;;;;;;12.40;81.04;97570.34;5059718;28;20051;-60
2022/04/14 06:53:08;;;;;;;24.08;17.70;;;;;;;12.51;80.71;97565.81;5064688;28;20446;-61
2022/04/14 06:55:37;;;;;;;28.27;19.90;;;;;;;12.54;80.70;97581.59;5060272;28;20508;-59
2022/04/14 06:58:04;;;;;;;29.13;20.63;;;;;;;12.59;79.58;97576.19;5044337;28;20048;-61
2022/04/14 07:00:30;;;;;;;27.13;18.63;;;;;;;12.61;80.36;97579.47;5044423;28;20052;-61
2022/04/14 07:02:57;;;;;;;25.38;17.15;;;;;;;12.70;79.83;97582.53;5060253;28;20041;-64
2022/04/14 07:05:25;;;;;;;26.65;18.52;;;;;;;12.78;79.70;97580.41;5064762;28;20127;-60
2022/04/14 07:07:51;;;;;;;26.33;17.85;;;;;;;12.82;79.47;97584.22;5055737;28;20041;-64
2022/04/14 07:10:18;;;;;;;24.73;16.75;;;;;;;12.88;78.99;97581.28;5043117;28;20065;-60
2022/04/14 07:12:46;;;;;;;23.98;16.35;;;;;;;12.93;79.35;97585.94;5044035;28;20426;-64
2022/04/14 07:15:13;;;;;;;29.15;18.17;;;;;;;12.97;78.91;97583.53;5044945;28;20079;-62
2022/04/14 07:17:40;;;;;;;23.88;16.60;;;;;;;13.07;78.40;97582.75;5045434;28;20049;-63
2022/04/14 07:20:09;;;;;;;28.90;16.13;;;;;;;13.19;77.93;97593.44;5048025;28;20049;-64
2022/04/14 07:22:45;;;;;;;26.67;16.73;;;;;;;13.21;77.88;97592.09;5046459;28;20389;-61
2022/04/14 07:25:12;;;;;;;25.58;17.45;;;;;;;13.25;78.54;97595.09;5063296;28;20369;-62
2022/04/14 07:27:39;;;;;;;24.02;17.50;;;;;;;13.29;78.28;97598.09;5059180;28;20528;-61
2022/04/14 07:30:06;;;;;;;21.95;16.40;;;;;;;13.46;77.71;97600.63;5045312;28;20052;-62
2022/04/14 07:32:34;;;;;;;38.55;18.40;;;;;;;13.46;77.62;97604.19;5070293;28;20102;-61
2022/04/14 07:35:03;;;;;;;25.17;16.25;;;;;;;13.47;77.71;97605.81;5057111;28;20048;-59
2022/04/14 07:37:31;;;;;;;21.40;16.08;;;;;;;13.50;77.69;97607.22;5050033;28;20520;-62
2022/04/14 07:39:58;;;;;;;23.75;15.85;;;;;;;13.40;77.20;97605.22;5053255;28;20051;-60
2022/04/14 07:42:35;;;;;;;21.90;15.55;;;;;;;13.33;77.21;97608.19;5061932;28;20554;-62
2022/04/14 07:45:05;;;;;;;25.17;16.90;;;;;;;13.38;77.54;97616.34;5055327;28;20045;-61
2022/04/14 07:47:37;;;;;;;24.98;16.80;;;;;;;13.51;77.85;97614.28;5055655;28;20044;-61
2022/04/14 07:50:04;;;;;;;28.33;16.98;;;;;;;13.54;77.13;97616.47;5055085;28;20049;-62
2022/04/14 07:52:43;;;;;;;25.20;16.83;;;;;;;13.55;77.27;97620.00;5047646;28;20052;-63
2022/04/14 07:55:09;;;;;;;22.95;15.68;;;;;;;13.44;77.79;97616.38;5047637;28;20053;-63
2022/04/14 07:57:36;;;;;;;22.02;15.45;;;;;;;13.53;77.06;97614.84;5045804;28;20492;-61
2022/04/14 08:00:05;;;;;;;21.13;16.20;;;;;;;13.48;76.92;97617.50;5048075;28;20048;-61
2022/04/14 08:02:49;;;;;;;21.80;16.35;;;;;;;13.64;76.99;97612.97;5049215;28;20515;-63
2022/04/14 08:05:16;;;;;;;23.05;16.17;;;;;;;13.81;76.25;97615.47;5065993;28;20056;-61
2022/04/14 08:07:43;;;;;;;22.63;16.70;;;;;;;13.77;76.12;97614.38;5057054;28;20041;-61
2022/04/14 08:10:09;;;;;;;24.33;17.38;;;;;;;13.82;76.33;97619.81;5046909;28;20040;-61
2022/04/14 08:12:36;;;;;;;24.42;16.05;;;;;;;13.96;76.65;97619.34;5046755;28;20072;-60
2022/04/14 08:15:03;;;;;;;22.20;16.58;;;;;;;13.94;75.72;97624.22;5048040;28;20563;-62
2022/04/14 08:17:30;;;;;;;75.07;19.17;;;;;;;14.14;75.00;97629.72;5045990;28;20119;-61
2022/04/14 08:19:56;;;;;;;24.42;15.68;;;;;;;14.16;74.84;97624.81;5047384;28;20036;-62
2022/04/14 08:22:23;;;;;;;21.05;15.85;;;;;;;14.36;74.46;97628.69;5058753;28;20527;-64
2022/04/14 08:24:50;;;;;;;28.27;15.57;;;;;;;14.59;73.37;97639.34;5067322;28;20045;-62
2022/04/14 08:27:18;;;;;;;25.60;15.13;;;;;;;14.64;72.83;97645.59;5063967;28;20044;-62
2022/04/14 08:29:44;;;;;;;20.73;14.05;;;;;;;14.59;73.38;97631.97;5046226;28;20041;-61
2022/04/14 08:32:11;;;;;;;22.30;14.65;;;;;;;14.60;73.01;97632.78;5055546;28;20086;-62
2022/04/14 08:34:38;;;;;;;19.77;14.65;;;;;;;14.68;72.43;97635.78;5056534;28;20280;-63
2022/04/14 08:37:05;;;;;;;22.45;14.20;;;;;;;14.75;72.77;97630.06;5058876;28;20048;-62
2022/04/14 08:39:32;;;;;;;21.45;15.82;;;;;;;14.57;71.92;97634.94;5045179;28;20051;-63
2022/04/14 08:42:08;;;;;;;20.50;14.95;;;;;;;14.54;72.46;97630.06;5057365;28;20048;-63
2022/04/14 08:44:36;;;;;;;22.75;16.02;;;;;;;14.69;71.77;97631.97;5049861;28;20041;-63
2022/04/14 08:47:06;;;;;;;22.45;15.60;;;;;;;14.73;71.75;97626.78;5046569;28;20610;-62
2022/04/14 08:49:34;;;;;;;25.40;15.60;;;;;;;14.82;71.52;97630.63;5058680;28;20049;-63
2022/04/14 08:52:01;;;;;;;22.70;14.98;;;;;;;14.88;71.42;97633.34;5055363;28;20048;-61
2022/04/14 08:54:29;;;;;;;21.00;14.25;;;;;;;15.00;70.88;97631.16;5045317;28;20056;-63
2022/04/14 08:56:58;;;;;;;19.15;14.13;;;;;;;15.15;71.96;97635.75;5083067;28;20408;-61
2022/04/14 08:59:25;;;;;;;18.38;13.98;;;;;;;15.18;70.97;97635.22;5055585;28;20041;-62
2022/04/14 09:01:52;;;;;;;20.05;14.68;;;;;;;15.12;71.31;97635.50;5053500;28;20044;-62
2022/04/14 09:04:19;;;;;;;19.85;14.02;;;;;;;15.31;70.91;97641.19;5077465;28;20052;-61
2022/04/14 09:06:46;;;;;;;20.30;14.93;;;;;;;15.16;70.04;97644.78;5055912;28;20060;-62
2022/04/14 09:09:12;;;;;;;20.92;14.32;;;;;;;15.26;69.97;97650.19;5049881;28;20049;-62
2022/04/14 09:11:39;;;;;;;21.08;14.25;;;;;;;15.29;69.40;97640.69;5048296;28;20528;-62
2022/04/14 09:14:06;;;;;;;23.70;14.55;;;;;;;15.43;69.01;97646.34;5026603;28;20236;-61
2022/04/14 09:16:33;;;;;;;22.65;13.93;;;;;;;15.37;68.66;97639.28;5052238;28;20052;-61
2022/04/14 09:19:02;;;;;;;20.52;13.50;;;;;;;15.45;68.43;97644.16;5063551;28;20044;-61
2022/04/14 09:21:29;;;;;;;21.67;13.98;;;;;;;15.56;67.69;97644.97;5058837;28;20152;-61
2022/04/14 09:23:57;;;;;;;23.48;14.98;;;;;;;15.56;67.37;97650.41;5048489;28;20532;-61
2022/04/14 09:26:23;;;;;;;21.85;13.40;;;;;;;15.71;67.30;97644.88;5065900;28;20045;-61
2022/04/14 09:29:01;;;;;;;21.35;14.55;;;;;;;15.93;68.06;97643.72;5070726;28;20124;-63
2022/04/14 09:31:28;;;;;;;22.20;14.23;;;;;;;15.88;67.23;97646.47;5055524;28;20416;-61
2022/04/14 09:33:55;;;;;;;22.75;13.45;;;;;;;15.91;66.58;97648.63;5060346;28;20257;-62
2022/04/14 09:36:27;;;;;;;18.85;13.57;;;;;;;15.76;67.27;97644.06;5069396;28;20056;-63
2022/04/14 09:39:02;;;;;;;18.80;12.35;;;;;;;15.96;65.82;97643.19;5052673;28;20048;-61
2022/04/14 09:41:46;;;;;;;24.00;12.95;;;;;;;15.79;65.13;97645.41;5049168;28;20048;-62
2022/04/14 09:44:14;;;;;;;18.33;13.23;;;;;;;15.92;65.89;97644.81;5042469;28;20060;-62
2022/04/14 09:46:45;;;;;;;22.30;12.20;;;;;;;16.18;65.25;97647.44;5076334;28;20683;-63
2022/04/14 09:49:14;;;;;;;19.05;12.90;;;;;;;16.31;64.65;97643.25;5062386;28;20168;-62
2022/04/14 09:51:44;;;;;;;15.95;11.38;;;;;;;16.55;64.23;97644.47;5050354;28;20052;-65
2022/04/14 09:54:19;;;;;;;20.45;13.13;;;;;;;16.52;62.77;97634.94;5047855;28;20053;-63
2022/04/14 09:56:53;;;;;;;19.95;11.40;;;;;;;16.63;62.75;97633.72;5073610;28;20059;-63
2022/04/14 09:59:24;;;;;;;18.02;11.90;;;;;;;16.86;61.96;97636.84;5060484;28;20036;-63
2022/04/14 10:02:23;;;;;;;;;;;;;;;16.90;61.92;97631.63;5072553;28;20044;-63
2022/04/14 10:04:50;;;;;;;21.15;11.45;;;;;;;17.05;60.91;97635.34;5020729;28;19924;-61
2022/04/14 10:07:18;;;;;;;21.63;12.05;;;;;;;17.19;61.68;97636.31;5050099;28;20466;-62
2022/04/14 10:09:49;;;;;;;17.92;11.45;;;;;;;17.40;61.15;97630.63;5052729;28;20037;-62
2022/04/14 10:12:15;;;;;;;18.95;11.85;;;;;;;17.27;59.67;97627.47;5059830;28;20044;-61
2022/04/14 10:14:43;;;;;;;14.55;11.40;;;;;;;17.32;60.25;97628.50;5052384;28;20570;-61
2022/04/14 10:17:10;;;;;;;17.70;11.65;;;;;;;17.42;58.72;97625.66;5058975;28;20523;-63
2022/04/14 10:19:37;;;;;;;20.55;12.98;;;;;;;17.26;59.16;97623.09;5048546;28;20040;-61
2022/04/14 10:22:06;;;;;;;16.60;11.18;;;;;;;17.40;58.57;97620.47;5060235;28;20036;-62
2022/04/14 10:24:35;;;;;;;19.38;11.38;;;;;;;17.51;58.85;97625.84;5059292;28;20051;-62
2022/04/14 10:27:03;;;;;;;18.75;11.00;;;;;;;17.60;58.16;97623.25;5061053;28;20044;-61
2022/04/14 10:29:31;;;;;;;18.23;12.07;;;;;;;17.54;58.27;97631.53;5042794;28;20065;-62
2022/04/14 10:31:58;;;;;;;17.38;11.65;;;;;;;17.62;58.70;97632.00;5060870;28;20052;-62
2022/04/14 10:34:25;;;;;;;22.92;12.13;;;;;;;17.74;59.01;97635.16;5048844;28;20052;-62
2022/04/14 10:36:52;;;;;;;19.98;12.90;;;;;;;17.89;59.31;97642.38;5062607;28;20569;-62
2022/04/14 10:39:19;;;;;;;21.85;13.80;;;;;;;17.79;59.09;97635.09;5061692;28;20029;-63
2022/04/14 10:41:49;;;;;;;20.45;13.38;;;;;;;17.87;59.76;97633.63;5075626;28;20114;-62
2022/04/14 10:44:20;;;;;;;21.67;12.75;;;;;;;18.31;58.22;97641.81;5040703;28;20037;-62
2022/04/14 10:46:50;;;;;;;17.08;12.63;;;;;;;18.32;58.14;97644.28;5049982;28;20625;-62
2022/04/14 10:49:27;;;;;;;17.67;12.18;;;;;;;18.13;58.99;97637.97;5061386;28;20585;-62
2022/04/14 10:51:55;;;;;;;19.40;13.15;;;;;;;18.54;58.39;97637.38;5042557;28;20524;-62
2022/04/14 10:54:22;;;;;;;22.50;13.48;;;;;;;18.67;57.57;97634.97;5046431;28;20089;-62
2022/04/14 10:56:50;;;;;;;16.50;10.00;;;;;;;18.95;58.04;97632.34;5067253;28;20051;-62
2022/04/14 10:59:18;;;;;;;21.52;14.50;;;;;;;18.68;57.53;97633.84;5085041;28;20044;-62
2022/04/14 11:04:35;;;;;;;19.77;13.77;;;;;;;18.97;57.87;97630.91;5058330;28;20044;-62
2022/04/14 11:07:15;;;;;;;17.42;12.27;;;;;;;19.02;58.96;97631.94;5054638;28;20044;-63
2022/04/14 11:09:42;;;;;;;18.10;13.15;;;;;;;18.91;57.24;97642.28;5066303;28;20066;-62
2022/04/14 11:12:14;;;;;;;15.82;11.00;;;;;;;19.10;57.22;97634.81;5058153;28;20053;-63
2022/04/14 11:14:56;;;;;;;22.85;14.23;;;;;;;19.08;57.41;97634.34;5065474;28;20048;-62
2022/04/14 11:17:38;;;;;;;20.88;13.98;;;;;;;19.41;56.89;97646.34;5055606;28;20522;-63
2022/04/14 11:20:13;;;;;;;;;;;;;;;19.09;56.90;97640.66;5045357;28;20075;-63
2022/04/14 11:23:08;;;;;;;22.63;15.27;;;;;;;18.51;58.12;97648.94;5047897;28;19929;-62
2022/04/14 11:25:44;;;;;;;21.77;15.82;;;;;;;19.02;57.14;97643.72;5063626;28;20040;-62
2022/04/14 11:28:27;;;;;;;20.52;15.52;;;;;;;18.81;59.07;97651.50;5070969;28;20226;-63